sensor_id;sensor_type;location;lat;lon;timestamp;P1;durP1;ratioP1;P2;durP2;ratioP2
17949;SDS011;9100;48.700;9.316;2023-02-12T00:00:15;29.8;;;19.5;;
17949;SDS011;9100;48.700;9.316;2023-02-12T00:00:35;28.4;;;19.7;;
17949;SDS011;9100;48.700;9.316;2023-02-12T00:01:15;28.4;;;19.7;;
17949;SDS011;9100;48.700;9.316;2023-02-12T00:02:15;28.4;;;19.7;;
17949;SDS011;9100;48.700;9.316;2023-02-12T00:03:15;28.4;;;19.7;;
17949;SDS011;9100;48.700;9.316;2023-02-12T00:04:14;28.4;;;19.7;;
17949;SDS011;9100;48.700;9.316;2023-02-12T00:05:14;28.4;;;19.7;;
17949;SDS011;9100;48.700;9.316;2023-02-12T00:05:37;30.2;;;18.5;;
17949;SDS011;9100;48.700;9.316;2023-02-12T00:06:15;30.2;;;18.5;;
17949;SDS011;9100;48.700;9.316;2023-02-12T00:07:15;30.2;;;18.5;;
17949;SDS011;9100;48.700;9.316;2023-02-12T00:08:15;30.2;;;18.5;;
17949;SDS011;9100;48.700;9.316;2023-02-12T00:09:15;30.2;;;18.5;;
17949;SDS011;9100;48.700;9.316;2023-02-12T00:10:14;30.2;;;18.5;;
17949;SDS011;9100;48.700;9.316;2023-02-12T00:10:35;29.7;;;18.5;;
17949;SDS011;9100;48.700;9.316;2023-02-12T00:11:15;29.7;;;18.5;;
17949;SDS011;9100;48.700;9.316;2023-02-12T00:12:14;29.7;;;18.5;;
17949;SDS011;9100;48.700;9.316;2023-02-12T00:13:14;29.7;;;18.5;;
17949;SDS011;9100;48.700;9.316;2023-02-12T00:14:14;29.7;;;18.5;;
17949;SDS011;9100;48.700;9.316;2023-02-12T00:15:14;29.7;;;18.5;;
17949;SDS011;9100;48.700;9.316;2023-02-12T00:15:37;28.4;;;18.6;;
17949;SDS011;9100;48.700;9.316;2023-02-12T00:16:15;28.4;;;18.6;;
17949;SDS011;9100;48.700;9.316;2023-02-12T00:17:14;28.4;;;18.6;;
17949;SDS011;9100;48.700;9.316;2023-02-12T00:18:15;28.4;;;18.6;;
17949;SDS011;9100;48.700;9.316;2023-02-12T00:19:14;28.4;;;18.6;;
17949;SDS011;9100;48.700;9.316;2023-02-12T00:20:14;28.4;;;18.6;;
17949;SDS011;9100;48.700;9.316;2023-02-12T00:20:35;24.9;;;18.3;;
17949;SDS011;9100;48.700;9.316;2023-02-12T00:21:14;24.9;;;18.3;;
17949;SDS011;9100;48.700;9.316;2023-02-12T00:22:15;24.9;;;18.3;;
17949;SDS011;9100;48.700;9.316;2023-02-12T00:23:14;24.9;;;18.3;;
17949;SDS011;9100;48.700;9.316;2023-02-12T00:24:14;24.9;;;18.3;;
17949;SDS011;9100;48.700;9.316;2023-02-12T00:25:14;24.9;;;18.3;;
17949;SDS011;9100;48.700;9.316;2023-02-12T00:25:39;26.8;;;19.3;;
17949;SDS011;9100;48.700;9.316;2023-02-12T00:26:15;26.8;;;19.3;;
17949;SDS011;9100;48.700;9.316;2023-02-12T00:27:14;26.8;;;19.3;;
17949;SDS011;9100;48.700;9.316;2023-02-12T00:28:14;26.8;;;19.3;;
17949;SDS011;9100;48.700;9.316;2023-02-12T00:29:14;26.8;;;19.3;;
17949;SDS011;9100;48.700;9.316;2023-02-12T00:30:14;26.8;;;19.3;;
17949;SDS011;9100;48.700;9.316;2023-02-12T00:30:35;24.2;;;17.7;;
17949;SDS011;9100;48.700;9.316;2023-02-12T00:31:15;24.2;;;17.7;;
17949;SDS011;9100;48.700;9.316;2023-02-12T00:32:14;24.2;;;17.7;;
17949;SDS011;9100;48.700;9.316;2023-02-12T00:33:14;24.2;;;17.7;;
17949;SDS011;9100;48.700;9.316;2023-02-12T00:34:14;24.2;;;17.7;;
17949;SDS011;9100;48.700;9.316;2023-02-12T00:35:15;24.2;;;17.7;;
17949;SDS011;9100;48.700;9.316;2023-02-12T00:35:35;33.4;;;21.7;;
17949;SDS011;9100;48.700;9.316;2023-02-12T00:36:16;33.4;;;21.7;;
17949;SDS011;9100;48.700;9.316;2023-02-12T00:37:15;33.4;;;21.7;;
17949;SDS011;9100;48.700;9.316;2023-02-12T00:38:14;33.4;;;21.7;;
17949;SDS011;9100;48.700;9.316;2023-02-12T00:39:14;33.4;;;21.7;;
17949;SDS011;9100;48.700;9.316;2023-02-12T00:40:14;33.4;;;21.7;;
17949;SDS011;9100;48.700;9.316;2023-02-12T00:40:35;21.2;;;17.9;;
17949;SDS011;9100;48.700;9.316;2023-02-12T00:41:14;21.2;;;17.9;;
17949;SDS011;9100;48.700;9.316;2023-02-12T00:42:14;21.2;;;17.9;;
17949;SDS011;9100;48.700;9.316;2023-02-12T00:43:15;21.2;;;17.9;;
17949;SDS011;9100;48.700;9.316;2023-02-12T00:44:15;21.2;;;17.9;;
17949;SDS011;9100;48.700;9.316;2023-02-12T00:45:14;21.2;;;17.9;;
17949;SDS011;9100;48.700;9.316;2023-02-12T00:45:36;24.8;;;19.8;;
17949;SDS011;9100;48.700;9.316;2023-02-12T00:46:14;24.8;;;19.8;;
17949;SDS011;9100;48.700;9.316;2023-02-12T00:47:15;24.8;;;19.8;;
17949;SDS011;9100;48.700;9.316;2023-02-12T00:48:14;24.8;;;19.8;;
17949;SDS011;9100;48.700;9.316;2023-02-12T00:49:15;24.8;;;19.8;;
17949;SDS011;9100;48.700;9.316;2023-02-12T00:50:15;24.8;;;19.8;;
17949;SDS011;9100;48.700;9.316;2023-02-12T00:50:36;25;;;19;;
17949;SDS011;9100;48.700;9.316;2023-02-12T00:51:15;25;;;19;;
17949;SDS011;9100;48.700;9.316;2023-02-12T00:52:15;25;;;19;;
17949;SDS011;9100;48.700;9.316;2023-02-12T00:53:15;25;;;19;;
17949;SDS011;9100;48.700;9.316;2023-02-12T00:54:16;25;;;19;;
17949;SDS011;9100;48.700;9.316;2023-02-12T00:55:14;25;;;19;;
17949;SDS011;9100;48.700;9.316;2023-02-12T00:55:35;27.9;;;19.8;;
17949;SDS011;9100;48.700;9.316;2023-02-12T00:56:16;27.9;;;19.8;;
17949;SDS011;9100;48.700;9.316;2023-02-12T00:57:14;27.9;;;19.8;;
17949;SDS011;9100;48.700;9.316;2023-02-12T00:58:14;27.9;;;19.8;;
17949;SDS011;9100;48.700;9.316;2023-02-12T00:59:16;27.9;;;19.8;;
17949;SDS011;9100;48.700;9.316;2023-02-12T01:00:14;27.9;;;19.8;;
17949;SDS011;9100;48.700;9.316;2023-02-12T01:00:35;28.6;;;19.9;;
17949;SDS011;9100;48.700;9.316;2023-02-12T01:01:14;28.6;;;19.9;;
17949;SDS011;9100;48.700;9.316;2023-02-12T01:02:14;28.6;;;19.9;;
17949;SDS011;9100;48.700;9.316;2023-02-12T01:03:14;28.6;;;19.9;;
17949;SDS011;9100;48.700;9.316;2023-02-12T01:04:15;28.6;;;19.9;;
17949;SDS011;9100;48.700;9.316;2023-02-12T01:05:14;28.6;;;19.9;;
17949;SDS011;9100;48.700;9.316;2023-02-12T01:05:35;25.9;;;19.7;;
17949;SDS011;9100;48.700;9.316;2023-02-12T01:06:15;25.9;;;19.7;;
17949;SDS011;9100;48.700;9.316;2023-02-12T01:07:14;25.9;;;19.7;;
17949;SDS011;9100;48.700;9.316;2023-02-12T01:08:15;25.9;;;19.7;;
17949;SDS011;9100;48.700;9.316;2023-02-12T01:09:14;25.9;;;19.7;;
17949;SDS011;9100;48.700;9.316;2023-02-12T01:10:15;25.9;;;19.7;;
17949;SDS011;9100;48.700;9.316;2023-02-12T01:10:35;20.5;;;18.1;;
17949;SDS011;9100;48.700;9.316;2023-02-12T01:11:14;20.5;;;18.1;;
17949;SDS011;9100;48.700;9.316;2023-02-12T01:12:14;20.5;;;18.1;;
17949;SDS011;9100;48.700;9.316;2023-02-12T01:13:14;20.5;;;18.1;;
17949;SDS011;9100;48.700;9.316;2023-02-12T01:14:14;20.5;;;18.1;;
17949;SDS011;9100;48.700;9.316;2023-02-12T01:15:14;20.5;;;18.1;;
17949;SDS011;9100;48.700;9.316;2023-02-12T01:15:35;28.8;;;19.4;;
17949;SDS011;9100;48.700;9.316;2023-02-12T01:16:15;28.8;;;19.4;;
17949;SDS011;9100;48.700;9.316;2023-02-12T01:17:14;28.8;;;19.4;;
17949;SDS011;9100;48.700;9.316;2023-02-12T01:18:14;28.8;;;19.4;;
17949;SDS011;9100;48.700;9.316;2023-02-12T01:19:14;28.8;;;19.4;;
17949;SDS011;9100;48.700;9.316;2023-02-12T01:20:15;28.8;;;19.4;;
17949;SDS011;9100;48.700;9.316;2023-02-12T01:20:35;22.4;;;18;;
17949;SDS011;9100;48.700;9.316;2023-02-12T01:21:15;22.4;;;18;;
17949;SDS011;9100;48.700;9.316;2023-02-12T01:22:14;22.4;;;18;;
17949;SDS011;9100;48.700;9.316;2023-02-12T01:23:15;22.4;;;18;;
17949;SDS011;9100;48.700;9.316;2023-02-12T01:24:15;22.4;;;18;;
17949;SDS011;9100;48.700;9.316;2023-02-12T01:25:15;22.4;;;18;;
17949;SDS011;9100;48.700;9.316;2023-02-12T01:25:36;27.5;;;19.1;;
17949;SDS011;9100;48.700;9.316;2023-02-12T01:26:15;27.5;;;19.1;;
17949;SDS011;9100;48.700;9.316;2023-02-12T01:27:15;27.5;;;19.1;;
17949;SDS011;9100;48.700;9.316;2023-02-12T01:28:15;27.5;;;19.1;;
17949;SDS011;9100;48.700;9.316;2023-02-12T01:29:14;27.5;;;19.1;;
17949;SDS011;9100;48.700;9.316;2023-02-12T01:30:14;27.5;;;19.1;;
17949;SDS011;9100;48.700;9.316;2023-02-12T01:30:35;27.3;;;17.9;;
17949;SDS011;9100;48.700;9.316;2023-02-12T01:31:16;27.3;;;17.9;;
17949;SDS011;9100;48.700;9.316;2023-02-12T01:32:15;27.3;;;17.9;;
17949;SDS011;9100;48.700;9.316;2023-02-12T01:33:14;27.3;;;17.9;;
17949;SDS011;9100;48.700;9.316;2023-02-12T01:34:14;27.3;;;17.9;;
17949;SDS011;9100;48.700;9.316;2023-02-12T01:35:15;27.3;;;17.9;;
17949;SDS011;9100;48.700;9.316;2023-02-12T01:35:35;23.3;;;18.5;;
17949;SDS011;9100;48.700;9.316;2023-02-12T01:36:15;23.3;;;18.5;;
17949;SDS011;9100;48.700;9.316;2023-02-12T01:37:15;23.3;;;18.5;;
17949;SDS011;9100;48.700;9.316;2023-02-12T01:38:15;23.3;;;18.5;;
17949;SDS011;9100;48.700;9.316;2023-02-12T01:39:15;23.3;;;18.5;;
17949;SDS011;9100;48.700;9.316;2023-02-12T01:40:15;23.3;;;18.5;;
17949;SDS011;9100;48.700;9.316;2023-02-12T01:40:35;24.3;;;16.9;;
17949;SDS011;9100;48.700;9.316;2023-02-12T01:41:16;24.3;;;16.9;;
17949;SDS011;9100;48.700;9.316;2023-02-12T01:42:15;24.3;;;16.9;;
17949;SDS011;9100;48.700;9.316;2023-02-12T01:43:15;24.3;;;16.9;;
17949;SDS011;9100;48.700;9.316;2023-02-12T01:44:16;24.3;;;16.9;;
17949;SDS011;9100;48.700;9.316;2023-02-12T01:45:44;22.7;;;18.5;;
17949;SDS011;9100;48.700;9.316;2023-02-12T01:45:49;24.3;;;16.9;;
17949;SDS011;9100;48.700;9.316;2023-02-12T01:46:14;22.7;;;18.5;;
17949;SDS011;9100;48.700;9.316;2023-02-12T01:47:15;22.7;;;18.5;;
17949;SDS011;9100;48.700;9.316;2023-02-12T01:48:15;22.7;;;18.5;;
17949;SDS011;9100;48.700;9.316;2023-02-12T01:49:17;22.7;;;18.5;;
17949;SDS011;9100;48.700;9.316;2023-02-12T01:50:15;22.7;;;18.5;;
17949;SDS011;9100;48.700;9.316;2023-02-12T01:50:36;26.4;;;18;;
17949;SDS011;9100;48.700;9.316;2023-02-12T01:51:16;26.4;;;18;;
17949;SDS011;9100;48.700;9.316;2023-02-12T01:52:17;26.4;;;18;;
17949;SDS011;9100;48.700;9.316;2023-02-12T01:53:14;26.4;;;18;;
17949;SDS011;9100;48.700;9.316;2023-02-12T01:54:14;26.4;;;18;;
17949;SDS011;9100;48.700;9.316;2023-02-12T01:55:14;26.4;;;18;;
17949;SDS011;9100;48.700;9.316;2023-02-12T01:55:36;22.7;;;15.5;;
17949;SDS011;9100;48.700;9.316;2023-02-12T01:56:15;22.7;;;15.5;;
17949;SDS011;9100;48.700;9.316;2023-02-12T01:57:14;22.7;;;15.5;;
17949;SDS011;9100;48.700;9.316;2023-02-12T01:58:14;22.7;;;15.5;;
17949;SDS011;9100;48.700;9.316;2023-02-12T01:59:16;22.7;;;15.5;;
17949;SDS011;9100;48.700;9.316;2023-02-12T02:00:15;22.7;;;15.5;;
17949;SDS011;9100;48.700;9.316;2023-02-12T02:00:35;22.2;;;16.1;;
17949;SDS011;9100;48.700;9.316;2023-02-12T02:01:17;22.2;;;16.1;;
17949;SDS011;9100;48.700;9.316;2023-02-12T02:02:15;22.2;;;16.1;;
17949;SDS011;9100;48.700;9.316;2023-02-12T02:03:14;22.2;;;16.1;;
17949;SDS011;9100;48.700;9.316;2023-02-12T02:04:15;22.2;;;16.1;;
17949;SDS011;9100;48.700;9.316;2023-02-12T02:05:16;22.2;;;16.1;;
17949;SDS011;9100;48.700;9.316;2023-02-12T02:05:37;24.2;;;17.7;;
17949;SDS011;9100;48.700;9.316;2023-02-12T02:06:15;24.2;;;17.7;;
17949;SDS011;9100;48.700;9.316;2023-02-12T02:07:14;24.2;;;17.7;;
17949;SDS011;9100;48.700;9.316;2023-02-12T02:08:14;24.2;;;17.7;;
17949;SDS011;9100;48.700;9.316;2023-02-12T02:09:14;24.2;;;17.7;;
17949;SDS011;9100;48.700;9.316;2023-02-12T02:10:14;24.2;;;17.7;;
17949;SDS011;9100;48.700;9.316;2023-02-12T02:10:35;23.5;;;15.7;;
17949;SDS011;9100;48.700;9.316;2023-02-12T02:11:15;23.5;;;15.7;;
17949;SDS011;9100;48.700;9.316;2023-02-12T02:12:14;23.5;;;15.7;;
17949;SDS011;9100;48.700;9.316;2023-02-12T02:13:15;23.5;;;15.7;;
17949;SDS011;9100;48.700;9.316;2023-02-12T02:14:14;23.5;;;15.7;;
17949;SDS011;9100;48.700;9.316;2023-02-12T02:15:15;23.5;;;15.7;;
17949;SDS011;9100;48.700;9.316;2023-02-12T02:15:35;23.4;;;15.3;;
17949;SDS011;9100;48.700;9.316;2023-02-12T02:16:16;23.4;;;15.3;;
17949;SDS011;9100;48.700;9.316;2023-02-12T02:17:21;23.4;;;15.3;;
17949;SDS011;9100;48.700;9.316;2023-02-12T02:18:16;23.4;;;15.3;;
17949;SDS011;9100;48.700;9.316;2023-02-12T02:19:18;23.4;;;15.3;;
17949;SDS011;9100;48.700;9.316;2023-02-12T02:20:41;21;;;16.6;;
17949;SDS011;9100;48.700;9.316;2023-02-12T02:21:34;21;;;16.6;;
17949;SDS011;9100;48.700;9.316;2023-02-12T02:22:16;21;;;16.6;;
17949;SDS011;9100;48.700;9.316;2023-02-12T02:23:21;21;;;16.6;;
17949;SDS011;9100;48.700;9.316;2023-02-12T02:24:25;21;;;16.6;;
17949;SDS011;9100;48.700;9.316;2023-02-12T02:25:23;21;;;16.6;;
17949;SDS011;9100;48.700;9.316;2023-02-12T02:25:44;21;;;16.7;;
17949;SDS011;9100;48.700;9.316;2023-02-12T02:26:21;21;;;16.7;;
17949;SDS011;9100;48.700;9.316;2023-02-12T02:27:16;21;;;16.7;;
17949;SDS011;9100;48.700;9.316;2023-02-12T02:28:21;21;;;16.7;;
17949;SDS011;9100;48.700;9.316;2023-02-12T02:29:19;21;;;16.7;;
17949;SDS011;9100;48.700;9.316;2023-02-12T02:30:33;21;;;16.7;;
17949;SDS011;9100;48.700;9.316;2023-02-12T02:30:37;20.7;;;16;;
17949;SDS011;9100;48.700;9.316;2023-02-12T02:31:16;20.7;;;16;;
17949;SDS011;9100;48.700;9.316;2023-02-12T02:32:16;20.7;;;16;;
17949;SDS011;9100;48.700;9.316;2023-02-12T02:33:21;20.7;;;16;;
17949;SDS011;9100;48.700;9.316;2023-02-12T02:34:16;20.7;;;16;;
17949;SDS011;9100;48.700;9.316;2023-02-12T02:35:17;20.7;;;16;;
17949;SDS011;9100;48.700;9.316;2023-02-12T02:35:36;20.4;;;15.5;;
17949;SDS011;9100;48.700;9.316;2023-02-12T02:36:17;20.4;;;15.5;;
17949;SDS011;9100;48.700;9.316;2023-02-12T02:37:16;20.4;;;15.5;;
17949;SDS011;9100;48.700;9.316;2023-02-12T02:38:17;20.4;;;15.5;;
17949;SDS011;9100;48.700;9.316;2023-02-12T02:39:14;20.4;;;15.5;;
17949;SDS011;9100;48.700;9.316;2023-02-12T02:40:15;20.4;;;15.5;;
17949;SDS011;9100;48.700;9.316;2023-02-12T02:40:37;21.1;;;16.3;;
17949;SDS011;9100;48.700;9.316;2023-02-12T02:41:15;21.1;;;16.3;;
17949;SDS011;9100;48.700;9.316;2023-02-12T02:42:15;21.1;;;16.3;;
17949;SDS011;9100;48.700;9.316;2023-02-12T02:43:15;21.1;;;16.3;;
17949;SDS011;9100;48.700;9.316;2023-02-12T02:44:16;21.1;;;16.3;;
17949;SDS011;9100;48.700;9.316;2023-02-12T02:45:15;21.1;;;16.3;;
17949;SDS011;9100;48.700;9.316;2023-02-12T02:45:36;22.2;;;16.5;;
17949;SDS011;9100;48.700;9.316;2023-02-12T02:46:15;22.2;;;16.5;;
17949;SDS011;9100;48.700;9.316;2023-02-12T02:47:15;22.2;;;16.5;;
17949;SDS011;9100;48.700;9.316;2023-02-12T02:48:16;22.2;;;16.5;;
17949;SDS011;9100;48.700;9.316;2023-02-12T02:49:15;22.2;;;16.5;;
17949;SDS011;9100;48.700;9.316;2023-02-12T02:50:17;22.2;;;16.5;;
17949;SDS011;9100;48.700;9.316;2023-02-12T02:50:35;22.6;;;16.7;;
17949;SDS011;9100;48.700;9.316;2023-02-12T02:51:15;22.6;;;16.7;;
17949;SDS011;9100;48.700;9.316;2023-02-12T02:52:16;22.6;;;16.7;;
17949;SDS011;9100;48.700;9.316;2023-02-12T02:53:15;22.6;;;16.7;;
17949;SDS011;9100;48.700;9.316;2023-02-12T02:54:15;22.6;;;16.7;;
17949;SDS011;9100;48.700;9.316;2023-02-12T02:55:15;22.6;;;16.7;;
17949;SDS011;9100;48.700;9.316;2023-02-12T02:55:36;22.1;;;16.3;;
17949;SDS011;9100;48.700;9.316;2023-02-12T02:56:15;22.1;;;16.3;;
17949;SDS011;9100;48.700;9.316;2023-02-12T02:57:16;22.1;;;16.3;;
17949;SDS011;9100;48.700;9.316;2023-02-12T02:58:15;22.1;;;16.3;;
17949;SDS011;9100;48.700;9.316;2023-02-12T02:59:15;22.1;;;16.3;;
17949;SDS011;9100;48.700;9.316;2023-02-12T03:00:16;22.1;;;16.3;;
17949;SDS011;9100;48.700;9.316;2023-02-12T03:00:36;28.7;;;18;;
17949;SDS011;9100;48.700;9.316;2023-02-12T03:01:15;28.7;;;18;;
17949;SDS011;9100;48.700;9.316;2023-02-12T03:02:15;28.7;;;18;;
17949;SDS011;9100;48.700;9.316;2023-02-12T03:03:15;28.7;;;18;;
17949;SDS011;9100;48.700;9.316;2023-02-12T03:04:16;28.7;;;18;;
17949;SDS011;9100;48.700;9.316;2023-02-12T03:05:16;28.7;;;18;;
17949;SDS011;9100;48.700;9.316;2023-02-12T03:05:36;21.3;;;15.4;;
17949;SDS011;9100;48.700;9.316;2023-02-12T03:06:17;21.3;;;15.4;;
17949;SDS011;9100;48.700;9.316;2023-02-12T03:07:15;21.3;;;15.4;;
17949;SDS011;9100;48.700;9.316;2023-02-12T03:08:16;21.3;;;15.4;;
17949;SDS011;9100;48.700;9.316;2023-02-12T03:09:15;21.3;;;15.4;;
17949;SDS011;9100;48.700;9.316;2023-02-12T03:10:15;21.3;;;15.4;;
17949;SDS011;9100;48.700;9.316;2023-02-12T03:10:37;20.5;;;16.6;;
17949;SDS011;9100;48.700;9.316;2023-02-12T03:11:25;20.5;;;16.6;;
17949;SDS011;9100;48.700;9.316;2023-02-12T03:12:15;20.5;;;16.6;;
17949;SDS011;9100;48.700;9.316;2023-02-12T03:13:15;20.5;;;16.6;;
17949;SDS011;9100;48.700;9.316;2023-02-12T03:14:16;20.5;;;16.6;;
17949;SDS011;9100;48.700;9.316;2023-02-12T03:15:17;20.5;;;16.6;;
17949;SDS011;9100;48.700;9.316;2023-02-12T03:15:36;22.6;;;18;;
17949;SDS011;9100;48.700;9.316;2023-02-12T03:16:16;22.6;;;18;;
17949;SDS011;9100;48.700;9.316;2023-02-12T03:17:15;22.6;;;18;;
17949;SDS011;9100;48.700;9.316;2023-02-12T03:18:16;22.6;;;18;;
17949;SDS011;9100;48.700;9.316;2023-02-12T03:19:15;22.6;;;18;;
17949;SDS011;9100;48.700;9.316;2023-02-12T03:20:16;22.6;;;18;;
17949;SDS011;9100;48.700;9.316;2023-02-12T03:20:35;26.7;;;18.5;;
17949;SDS011;9100;48.700;9.316;2023-02-12T03:21:15;26.7;;;18.5;;
17949;SDS011;9100;48.700;9.316;2023-02-12T03:22:16;26.7;;;18.5;;
17949;SDS011;9100;48.700;9.316;2023-02-12T03:23:16;26.7;;;18.5;;
17949;SDS011;9100;48.700;9.316;2023-02-12T03:24:15;26.7;;;18.5;;
17949;SDS011;9100;48.700;9.316;2023-02-12T03:25:15;26.7;;;18.5;;
17949;SDS011;9100;48.700;9.316;2023-02-12T03:25:36;20.2;;;16.3;;
17949;SDS011;9100;48.700;9.316;2023-02-12T03:26:16;20.2;;;16.3;;
17949;SDS011;9100;48.700;9.316;2023-02-12T03:27:16;20.2;;;16.3;;
17949;SDS011;9100;48.700;9.316;2023-02-12T03:28:15;20.2;;;16.3;;
17949;SDS011;9100;48.700;9.316;2023-02-12T03:29:14;20.2;;;16.3;;
17949;SDS011;9100;48.700;9.316;2023-02-12T03:30:14;20.2;;;16.3;;
17949;SDS011;9100;48.700;9.316;2023-02-12T03:30:41;18.2;;;15.2;;
17949;SDS011;9100;48.700;9.316;2023-02-12T03:31:17;18.2;;;15.2;;
17949;SDS011;9100;48.700;9.316;2023-02-12T03:32:21;18.2;;;15.2;;
17949;SDS011;9100;48.700;9.316;2023-02-12T03:33:16;18.2;;;15.2;;
17949;SDS011;9100;48.700;9.316;2023-02-12T03:34:16;18.2;;;15.2;;
17949;SDS011;9100;48.700;9.316;2023-02-12T03:35:15;18.2;;;15.2;;
17949;SDS011;9100;48.700;9.316;2023-02-12T03:35:37;23.7;;;17.1;;
17949;SDS011;9100;48.700;9.316;2023-02-12T03:36:17;23.7;;;17.1;;
17949;SDS011;9100;48.700;9.316;2023-02-12T03:37:16;23.7;;;17.1;;
17949;SDS011;9100;48.700;9.316;2023-02-12T03:38:15;23.7;;;17.1;;
17949;SDS011;9100;48.700;9.316;2023-02-12T03:39:15;23.7;;;17.1;;
17949;SDS011;9100;48.700;9.316;2023-02-12T03:40:16;23.7;;;17.1;;
17949;SDS011;9100;48.700;9.316;2023-02-12T03:40:37;20.5;;;15.8;;
17949;SDS011;9100;48.700;9.316;2023-02-12T03:41:17;20.5;;;15.8;;
17949;SDS011;9100;48.700;9.316;2023-02-12T03:42:15;20.5;;;15.8;;
17949;SDS011;9100;48.700;9.316;2023-02-12T03:43:16;20.5;;;15.8;;
17949;SDS011;9100;48.700;9.316;2023-02-12T03:44:19;20.5;;;15.8;;
17949;SDS011;9100;48.700;9.316;2023-02-12T03:45:18;20.5;;;15.8;;
17949;SDS011;9100;48.700;9.316;2023-02-12T03:45:37;25.4;;;17;;
17949;SDS011;9100;48.700;9.316;2023-02-12T03:46:16;25.4;;;17;;
17949;SDS011;9100;48.700;9.316;2023-02-12T03:47:16;25.4;;;17;;
17949;SDS011;9100;48.700;9.316;2023-02-12T03:48:17;25.4;;;17;;
17949;SDS011;9100;48.700;9.316;2023-02-12T03:49:16;25.4;;;17;;
17949;SDS011;9100;48.700;9.316;2023-02-12T03:50:16;25.4;;;17;;
17949;SDS011;9100;48.700;9.316;2023-02-12T03:50:36;22.8;;;14.7;;
17949;SDS011;9100;48.700;9.316;2023-02-12T03:51:16;22.8;;;14.7;;
17949;SDS011;9100;48.700;9.316;2023-02-12T03:52:14;22.8;;;14.7;;
17949;SDS011;9100;48.700;9.316;2023-02-12T03:53:14;22.8;;;14.7;;
17949;SDS011;9100;48.700;9.316;2023-02-12T03:54:15;22.8;;;14.7;;
17949;SDS011;9100;48.700;9.316;2023-02-12T03:55:15;22.8;;;14.7;;
17949;SDS011;9100;48.700;9.316;2023-02-12T03:55:35;19.5;;;14.8;;
17949;SDS011;9100;48.700;9.316;2023-02-12T03:56:15;19.5;;;14.8;;
17949;SDS011;9100;48.700;9.316;2023-02-12T03:57:15;19.5;;;14.8;;
17949;SDS011;9100;48.700;9.316;2023-02-12T03:58:20;19.5;;;14.8;;
17949;SDS011;9100;48.700;9.316;2023-02-12T03:59:14;19.5;;;14.8;;
17949;SDS011;9100;48.700;9.316;2023-02-12T04:00:17;19.5;;;14.8;;
17949;SDS011;9100;48.700;9.316;2023-02-12T04:00:35;25.9;;;15.5;;
17949;SDS011;9100;48.700;9.316;2023-02-12T04:01:15;25.9;;;15.5;;
17949;SDS011;9100;48.700;9.316;2023-02-12T04:02:15;25.9;;;15.5;;
17949;SDS011;9100;48.700;9.316;2023-02-12T04:03:14;25.9;;;15.5;;
17949;SDS011;9100;48.700;9.316;2023-02-12T04:04:15;25.9;;;15.5;;
17949;SDS011;9100;48.700;9.316;2023-02-12T04:05:15;25.9;;;15.5;;
17949;SDS011;9100;48.700;9.316;2023-02-12T04:05:36;19.1;;;15;;
17949;SDS011;9100;48.700;9.316;2023-02-12T04:06:18;19.1;;;15;;
17949;SDS011;9100;48.700;9.316;2023-02-12T04:07:16;19.1;;;15;;
17949;SDS011;9100;48.700;9.316;2023-02-12T04:08:15;19.1;;;15;;
17949;SDS011;9100;48.700;9.316;2023-02-12T04:09:15;19.1;;;15;;
17949;SDS011;9100;48.700;9.316;2023-02-12T04:10:15;19.1;;;15;;
17949;SDS011;9100;48.700;9.316;2023-02-12T04:10:37;18.1;;;13.4;;
17949;SDS011;9100;48.700;9.316;2023-02-12T04:11:19;18.1;;;13.4;;
17949;SDS011;9100;48.700;9.316;2023-02-12T04:12:20;18.1;;;13.4;;
17949;SDS011;9100;48.700;9.316;2023-02-12T04:13:15;18.1;;;13.4;;
17949;SDS011;9100;48.700;9.316;2023-02-12T04:14:17;18.1;;;13.4;;
17949;SDS011;9100;48.700;9.316;2023-02-12T04:15:20;18.1;;;13.4;;
17949;SDS011;9100;48.700;9.316;2023-02-12T04:15:45;22.3;;;14.6;;
17949;SDS011;9100;48.700;9.316;2023-02-12T04:16:16;22.3;;;14.6;;
17949;SDS011;9100;48.700;9.316;2023-02-12T04:17:18;22.3;;;14.6;;
17949;SDS011;9100;48.700;9.316;2023-02-12T04:18:16;22.3;;;14.6;;
17949;SDS011;9100;48.700;9.316;2023-02-12T04:19:16;22.3;;;14.6;;
17949;SDS011;9100;48.700;9.316;2023-02-12T04:20:15;22.3;;;14.6;;
17949;SDS011;9100;48.700;9.316;2023-02-12T04:20:40;17;;;14.5;;
17949;SDS011;9100;48.700;9.316;2023-02-12T04:21:17;17;;;14.5;;
17949;SDS011;9100;48.700;9.316;2023-02-12T04:22:17;17;;;14.5;;
17949;SDS011;9100;48.700;9.316;2023-02-12T04:23:16;17;;;14.5;;
17949;SDS011;9100;48.700;9.316;2023-02-12T04:24:16;17;;;14.5;;
17949;SDS011;9100;48.700;9.316;2023-02-12T04:25:16;17;;;14.5;;
17949;SDS011;9100;48.700;9.316;2023-02-12T04:25:40;19.6;;;15;;
17949;SDS011;9100;48.700;9.316;2023-02-12T04:26:17;19.6;;;15;;
17949;SDS011;9100;48.700;9.316;2023-02-12T04:27:15;19.6;;;15;;
17949;SDS011;9100;48.700;9.316;2023-02-12T04:28:16;19.6;;;15;;
17949;SDS011;9100;48.700;9.316;2023-02-12T04:29:16;19.6;;;15;;
17949;SDS011;9100;48.700;9.316;2023-02-12T04:30:17;19.6;;;15;;
17949;SDS011;9100;48.700;9.316;2023-02-12T04:30:36;23.8;;;16;;
17949;SDS011;9100;48.700;9.316;2023-02-12T04:31:17;23.8;;;16;;
17949;SDS011;9100;48.700;9.316;2023-02-12T04:32:15;23.8;;;16;;
17949;SDS011;9100;48.700;9.316;2023-02-12T04:33:16;23.8;;;16;;
17949;SDS011;9100;48.700;9.316;2023-02-12T04:34:16;23.8;;;16;;
17949;SDS011;9100;48.700;9.316;2023-02-12T04:35:16;23.8;;;16;;
17949;SDS011;9100;48.700;9.316;2023-02-12T04:35:35;17.9;;;14.6;;
17949;SDS011;9100;48.700;9.316;2023-02-12T04:36:15;17.9;;;14.6;;
17949;SDS011;9100;48.700;9.316;2023-02-12T04:37:15;17.9;;;14.6;;
17949;SDS011;9100;48.700;9.316;2023-02-12T04:38:16;17.9;;;14.6;;
17949;SDS011;9100;48.700;9.316;2023-02-12T04:39:16;17.9;;;14.6;;
17949;SDS011;9100;48.700;9.316;2023-02-12T04:40:16;17.9;;;14.6;;
17949;SDS011;9100;48.700;9.316;2023-02-12T04:40:35;19.9;;;14.8;;
17949;SDS011;9100;48.700;9.316;2023-02-12T04:41:15;19.9;;;14.8;;
17949;SDS011;9100;48.700;9.316;2023-02-12T04:42:14;19.9;;;14.8;;
17949;SDS011;9100;48.700;9.316;2023-02-12T04:43:24;19.9;;;14.8;;
17949;SDS011;9100;48.700;9.316;2023-02-12T04:44:16;19.9;;;14.8;;
17949;SDS011;9100;48.700;9.316;2023-02-12T04:45:17;19.9;;;14.8;;
17949;SDS011;9100;48.700;9.316;2023-02-12T04:45:37;22.2;;;15.7;;
17949;SDS011;9100;48.700;9.316;2023-02-12T04:46:15;22.2;;;15.7;;
17949;SDS011;9100;48.700;9.316;2023-02-12T04:47:15;22.2;;;15.7;;
17949;SDS011;9100;48.700;9.316;2023-02-12T04:48:16;22.2;;;15.7;;
17949;SDS011;9100;48.700;9.316;2023-02-12T04:49:16;22.2;;;15.7;;
17949;SDS011;9100;48.700;9.316;2023-02-12T04:50:14;22.2;;;15.7;;
17949;SDS011;9100;48.700;9.316;2023-02-12T04:50:37;19.5;;;15.1;;
17949;SDS011;9100;48.700;9.316;2023-02-12T04:51:15;19.5;;;15.1;;
17949;SDS011;9100;48.700;9.316;2023-02-12T04:52:14;19.5;;;15.1;;
17949;SDS011;9100;48.700;9.316;2023-02-12T04:53:15;19.5;;;15.1;;
17949;SDS011;9100;48.700;9.316;2023-02-12T04:54:15;19.5;;;15.1;;
17949;SDS011;9100;48.700;9.316;2023-02-12T04:55:14;19.5;;;15.1;;
17949;SDS011;9100;48.700;9.316;2023-02-12T04:55:35;23.6;;;16.3;;
17949;SDS011;9100;48.700;9.316;2023-02-12T04:56:14;23.6;;;16.3;;
17949;SDS011;9100;48.700;9.316;2023-02-12T04:57:14;23.6;;;16.3;;
17949;SDS011;9100;48.700;9.316;2023-02-12T04:58:15;23.6;;;16.3;;
17949;SDS011;9100;48.700;9.316;2023-02-12T04:59:14;23.6;;;16.3;;
17949;SDS011;9100;48.700;9.316;2023-02-12T05:00:15;23.6;;;16.3;;
17949;SDS011;9100;48.700;9.316;2023-02-12T05:00:36;21.4;;;15.9;;
17949;SDS011;9100;48.700;9.316;2023-02-12T05:01:14;21.4;;;15.9;;
17949;SDS011;9100;48.700;9.316;2023-02-12T05:02:14;21.4;;;15.9;;
17949;SDS011;9100;48.700;9.316;2023-02-12T05:03:16;21.4;;;15.9;;
17949;SDS011;9100;48.700;9.316;2023-02-12T05:04:15;21.4;;;15.9;;
17949;SDS011;9100;48.700;9.316;2023-02-12T05:05:14;21.4;;;15.9;;
17949;SDS011;9100;48.700;9.316;2023-02-12T05:05:36;22.6;;;15.8;;
17949;SDS011;9100;48.700;9.316;2023-02-12T05:06:14;22.6;;;15.8;;
17949;SDS011;9100;48.700;9.316;2023-02-12T05:07:14;22.6;;;15.8;;
17949;SDS011;9100;48.700;9.316;2023-02-12T05:08:14;22.6;;;15.8;;